Date,TemperatureHighF,TemperatureAvgF,TemperatureLowF,DewpointHighF,DewpointAvgF,DewpointLowF,HumidityHigh,HumidityAvg,HumidityLow,PressureMaxIn,PressureMinIn,WindSpeedMaxMPH,WindSpeedAvgMPH,GustSpeedMaxMPH,PrecipitationSumIn
2013-1-1,48,46,42,47,44,38,98,95,84,30.21,29.99,7,3,0,0.00
2013-1-2,46,40,36,45,36,24,98,87,55,30.18,29.95,5,2,0,0.00
2013-1-3,39,35,30,33,25,21,89,66,52,30.36,30.15,6,2,0,0.00
2013-1-4,42,34,29,22,18,13,72,54,32,30.44,30.32,7,3,0,0.00
2013-1-5,44,37,29,31,19,2,89,52,19,30.41,30.31,6,2,0,0.00
2013-1-6,36,34,32,35,32,30,97,94,86,30.31,30.22,7,4,0,0.00
2013-1-7,51,39,29,30,25,16,89,59,37,30.44,30.29,9,4,0,0.00
2013-1-8,45,39,34,42,34,28,95,81,70,30.46,30.35,10,6,0,0.00
2013-1-9,55,52,43,53,50,42,98,94,85,30.50,30.42,7,5,0,0.00
2013-1-10,56,53,51,53,51,49,97,90,83,30.46,30.25,7,5,0,0.00
2013-1-11,60,57,52,60,56,51,100,98,97,30.25,30.13,7,5,0,0.00
2013-1-12,63,60,58,62,58,55,100,95,85,30.17,30.06,6,3,0,0.00
2013-1-13,61,59,56,58,57,55,97,94,87,30.10,30.03,9,5,0,0.00
2013-1-14,59,56,51,59,56,51,100,99,97,30.12,30.01,7,4,0,0.00
2013-1-15,58,55,52,58,55,52,100,99,98,30.09,29.99,8,4,0,0.00
2013-1-16,58,53,49,58,53,49,100,100,100,29.99,29.92,7,2,0,0.00
2013-1-17,52,46,32,52,46,32,100,100,100,30.04,29.67,7,4,0,0.00
2013-1-18,47,36,26,33,26,22,98,69,44,30.55,30.23,4,1,0,0.00
2013-1-19,47,39,30,28,26,23,81,60,43,30.51,30.29,7,3,0,0.00
2013-1-20,47,43,39,35,31,27,71,63,55,30.29,30.15,6,4,0,0.00
2013-1-21,47,41,28,33,24,15,64,51,37,30.15,30.08,10,6,0,0.00
2013-1-22,35,28,20,15,10,8,62,47,38,30.37,30.13,8,6,0,0.00
2013-1-23,41,33,25,27,19,9,64,56,47,30.44,30.30,9,6,0,0.00
2013-1-24,41,38,30,39,22,-4,92,58,20,30.37,30.17,12,7,0,0.00
2013-1-25,41,29,21,40,21,5,97,75,43,30.39,30.22,11,7,0,0.00
2013-1-26,46,42,38,41,26,4,98,56,17,30.32,30.21,8,3,0,0.00
2013-1-27,44,38,31,32,28,13,88,70,28,30.47,30.32,8,6,0,0.00
2013-1-28,49,42,35,48,39,29,98,90,75,30.47,30.35,8,4,0,0.00
2013-1-29,62,56,48,58,54,47,99,94,83,30.34,30.00,8,4,0,0.00
2013-1-30,60,53,37,60,52,36,99,98,92,30.00,29.52,11,8,0,0.00
2013-1-31,38,33,25,32,24,22,95,69,53,30.19,29.71,11,8,0,0.00
2013-2-1,33,27,20,28,14,5,87,59,33,30.42,30.15,12,6,0,0.00
2013-2-2,34,30,24,31,16,-18,97,65,11,30.42,30.20,7,4,0,0.00
2013-2-3,42,33,28,37,29,25,97,86,56,30.20,30.07,9,4,0,0.00
2013-2-4,44,37,29,29,23,12,79,57,43,30.18,30.08,6,2,0,0.00
2013-2-5,49,42,37,45,37,26,97,82,62,30.09,30.01,7,5,0,0.00
2013-2-6,59,50,42,43,32,25,96,52,33,30.22,30.09,7,4,0,0.00
2013-2-7,49,43,40,41,35,26,97,76,41,30.17,29.93,7,5,0,0.00
2013-2-8,48,41,31,43,38,28,98,92,64,30.17,29.95,6,3,0,0.00
2013-2-9,58,45,31,28,22,14,90,44,23,30.35,30.13,9,4,0,0.00
2013-2-10,47,42,38,42,32,23,97,69,45,30.32,30.13,11,7,0,0.00
2013-2-11,51,47,43,51,45,34,99,94,67,30.16,30.09,10,5,0,0.00
2013-2-12,51,43,38,38,30,3,96,67,16,30.12,29.85,8,3,0,0.00
2013-2-13,41,37,32,40,36,32,98,97,95,29.94,29.78,11,7,0,0.00
2013-2-14,47,37,29,34,31,27,97,79,53,30.13,29.99,6,3,0,0.00
2013-2-15,52,43,34,38,34,31,91,71,45,30.15,30.02,6,4,0,0.00
2013-2-16,34,28,21,32,19,11,91,70,46,30.16,29.96,8,5,0,0.00
2013-2-17,35,26,19,15,10,6,77,52,36,30.37,30.16,7,5,0,0.00
2013-2-18,52,39,28,28,21,15,60,49,39,30.43,30.20,10,4,0,0.00
2013-2-19,46,39,33,39,30,15,97,75,33,30.20,30.03,11,6,0,0.00
2013-2-20,46,35,28,15,4,-49,56,32,1,30.23,30.11,8,4,0,0.00
2013-2-21,57,48,36,46,18,-50,100,39,1,30.21,29.97,9,5,0,0.00
2013-2-22,39,36,33,38,35,32,98,97,89,30.17,30.07,13,8,0,0.00
2013-2-23,49,45,39,49,45,38,100,100,98,30.11,29.89,7,2,0,0.00
2013-2-24,57,48,41,43,31,11,100,55,25,30.05,29.92,7,4,0,0.00
2013-2-25,48,40,33,35,26,10,96,62,23,30.03,29.86,10,7,0,0.00
2013-2-26,41,36,32,40,35,31,98,97,91,29.87,29.61,10,8,0,0.00
2013-2-27,48,38,31,36,32,29,97,82,57,29.92,29.79,9,5,0,0.00
2013-2-28,37,31,27,33,26,23,86,82,72,30.04,29.86,9,6,0,0.00
2013-3-1,31,28,27,27,25,23,96,89,83,30.06,30.00,5,3,0,0.00
2013-3-2,27,26,24,26,25,20,96,93,86,30.09,29.99,6,4,0,0.00
2013-3-3,30,25,21,21,19,16,93,76,63,30.15,30.05,7,4,0,0.00
2013-3-4,51,40,25,28,21,12,68,47,34,30.26,30.10,6,3,0,0.00
2013-3-5,53,44,29,50,40,25,97,86,52,30.14,29.70,14,6,0,0.00
2013-3-6,29,26,22,26,23,19,94,90,84,30.26,29.84,12,8,0,0.00
2013-3-7,49,37,25,34,26,-4,95,67,12,30.35,30.23,6,3,0,0.00
2013-3-8,60,46,37,28,18,-6,67,35,11,30.34,30.26,5,2,0,0.00
2013-3-9,52,46,38,30,26,20,50,46,33,30.33,30.25,7,5,0,0.00
2013-3-10,62,51,42,39,32,29,65,50,33,30.25,30.10,9,6,0,0.00
2013-3-11,52,49,46,51,47,39,98,93,65,30.13,29.83,9,6,0,0.00
2013-3-12,50,41,32,45,34,27,98,79,52,30.14,29.82,8,4,0,0.00
2013-3-13,42,37,27,29,24,18,71,59,44,30.25,30.11,10,7,0,0.00
2013-3-14,45,32,21,29,16,11,80,55,26,30.42,30.24,8,4,0,0.00
2013-3-15,65,49,38,42,32,20,80,52,41,30.32,30.04,11,8,0,0.00
2013-3-16,68,58,49,45,42,40,73,56,38,30.00,29.89,10,7,0,0.00
2013-3-17,63,56,49,52,47,41,94,73,58,29.99,29.91,8,4,0,0.00
2013-3-18,54,47,41,52,46,40,99,96,84,29.97,29.83,9,6,0,0.00
2013-3-19,53,46,35,46,31,18,98,61,30,30.11,29.91,9,4,0,0.00
2013-3-20,48,40,33,28,15,9,77,36,25,30.14,29.93,8,5,0,0.00
2013-3-21,38,30,20,27,12,7,77,48,33,30.04,29.89,8,5,0,0.00
2013-3-22,43,36,29,32,21,11,73,56,44,30.11,30.03,7,2,0,0.00
2013-3-23,47,43,38,46,40,31,97,91,71,30.09,29.79,9,2,0,0.00
2013-3-24,45,43,36,45,42,32,99,97,86,29.81,29.54,11,6,0,0.00
2013-3-25,33,27,24,30,23,21,93,85,78,30.09,29.67,12,9,0,0.00
2013-3-26,31,26,23,26,23,22,95,89,78,30.35,30.08,9,6,0,0.00
2013-3-27,44,33,24,27,22,21,90,68,43,30.42,30.32,6,3,0,0.00
2013-3-28,51,41,33,29,24,17,62,50,34,30.39,30.31,9,4,0,0.00
2013-3-29,57,47,41,35,26,16,56,44,33,30.37,30.23,5,2,0,0.00
2013-3-30,64,51,45,50,39,31,96,63,43,30.23,30.05,6,3,0,0.00
2013-3-31,55,51,49,54,49,-100,99,97,91,30.05,29.89,8,5,0,0.00
2013-4-1,60,53,47,51,41,29,98,66,46,30.04,29.87,7,4,0,0.00
2013-4-2,56,46,40,36,27,18,68,48,33,30.18,30.03,6,4,0,0.00
2013-4-3,54,47,39,37,30,21,91,54,40,30.22,30.09,7,4,0,0.00
2013-4-4,39,36,32,37,34,31,97,94,82,30.18,30.01,12,7,0,0.00
2013-4-5,59,45,36,43,37,28,98,77,33,30.13,29.98,5,3,0,0.00
2013-4-6,66,55,45,37,34,30,59,46,32,30.22,30.11,6,3,0,0.00
2013-4-7,68,57,48,47,42,35,82,59,43,30.20,30.09,7,4,0,0.00
2013-4-8,69,64,56,54,51,47,80,62,50,30.14,30.07,5,3,0,0.00
2013-4-9,75,65,57,57,54,51,90,68,47,30.20,30.07,6,2,0,0.00
2013-4-10,79,68,60,58,55,53,85,65,44,30.12,29.92,7,3,0,0.00
2013-4-11,71,64,57,62,57,52,97,80,64,29.93,29.66,9,5,0,0.00
2013-4-12,59,54,47,57,46,35,98,79,45,29.94,29.61,8,6,0,0.00
2013-4-13,68,56,47,38,34,29,66,46,26,30.07,29.91,9,5,0,0.00
2013-4-14,58,54,48,49,39,27,97,63,33,30.06,29.88,8,4,0,0.00
2013-4-15,69,56,49,58,53,48,99,90,67,30.16,29.94,5,2,0,0.00
2013-4-16,74,62,55,62,58,54,99,88,65,30.26,30.15,6,3,0,0.00
2013-4-17,78,67,60,63,60,57,94,79,56,30.22,30.07,4,2,0,0.00
2013-4-18,74,65,58,59,57,55,97,76,56,30.07,29.91,8,4,0,0.00
2013-4-19,65,52,38,60,49,34,98,91,73,29.99,29.74,10,7,0,0.00
2013-4-20,56,44,34,34,28,25,86,57,32,30.27,29.99,8,4,0,0.00
2013-4-21,63,51,43,38,33,27,69,51,35,30.37,30.27,7,3,0,0.00
2013-4-22,66,52,40,43,39,35,84,64,42,30.32,30.19,6,3,0,0.00
2013-4-23,69,55,44,47,39,29,69,55,41,30.24,30.11,6,4,0,0.00
2013-4-24,63,57,51,56,52,47,98,84,67,30.14,30.06,6,4,0,0.00
2013-4-25,64,54,42,50,29,6,98,45,16,30.32,30.09,5,2,0,0.00
2013-4-26,69,57,48,40,33,20,50,39,30,30.39,30.26,6,3,0,0.00
2013-4-27,58,50,47,50,47,39,97,91,50,30.35,30.19,8,5,0,0.00
2013-4-28,52,50,47,52,48,-100,99,98,97,30.24,30.04,8,5,0,0.00
2013-4-29,66,56,50,56,51,48,100,86,56,30.08,29.98,5,2,0,0.00
2013-4-30,73,62,54,59,53,47,97,76,50,30.09,29.98,3,1,0,0.00
2013-5-1,64,57,52,56,53,51,97,86,68,30.16,30.07,7,5,0,0.00
2013-5-2,56,54,52,55,52,50,98,96,91,30.18,30.12,8,5,0,0.00
2013-5-3,52,51,50,52,50,49,99,98,97,30.14,29.96,10,6,0,0.00
2013-5-4,50,47,43,50,46,42,99,98,94,29.96,29.85,10,6,0,0.00
2013-5-5,53,48,42,53,48,41,100,99,98,29.87,29.76,6,3,0,0.00
2013-5-6,46,43,40,46,42,39,99,98,94,29.95,29.80,3,1,0,0.00
2013-5-7,63,52,45,51,47,44,100,86,57,30.02,29.90,5,2,0,0.00
2013-5-8,68,58,50,56,52,49,97,84,62,30.09,29.97,5,2,0,0.00
2013-5-9,73,65,59,57,55,53,89,71,51,30.13,30.04,4,2,0,0.00
2013-5-10,69,62,58,58,54,-100,94,79,66,30.09,29.96,4,1,0,0.00
2013-5-11,66,59,57,62,58,55,99,95,86,29.98,29.89,5,2,0,0.00
2013-5-12,60,52,47,56,40,-100,95,67,38,30.11,29.91,5,3,0,0.00
2013-5-13,60,50,41,36,32,29,66,50,37,30.25,30.10,4,2,0,0.00
2013-5-14,72,60,51,53,42,31,70,52,45,30.28,30.14,5,2,0,0.00
2013-5-15,79,68,60,57,54,49,76,61,46,30.16,30.02,6,4,0,0.00
2013-5-16,75,62,61,61,37,-100,81,68,58,30.06,29.98,3,1,0,0.00
2013-5-17,75,65,61,63,50,-100,91,73,57,30.08,30.01,2,0,0,0.00
2013-5-18,64,61,58,62,60,57,98,96,91,30.07,30.01,5,2,0,0.00
2013-5-19,63,61,59,62,60,56,99,97,83,30.12,30.01,3,1,0,0.00
2013-5-20,77,67,59,69,63,58,98,88,73,30.13,30.01,2,1,0,0.00
2013-5-21,80,71,63,69,66,62,97,84,63,30.03,29.89,3,1,0,0.00
2013-5-22,78,68,60,67,63,59,97,86,60,29.99,29.84,4,1,0,0.00
2013-5-23,72,65,61,63,59,53,97,81,58,29.96,29.88,4,1,0,0.00
2013-5-24,66,58,52,54,47,39,93,70,39,30.22,29.96,2,1,0,0.00
2013-5-25,70,60,49,48,39,20,72,47,23,30.33,30.21,2,0,0,0.00
2013-5-26,74,66,60,52,46,40,61,49,36,30.26,30.17,1,0,0,0.00
2013-5-27,77,67,57,60,53,39,79,62,39,30.22,30.11,1,0,0,0.00
2013-5-28,77,69,61,61,58,55,85,70,47,30.17,30.11,5,2,0,0.00
2013-5-29,74,66,59,63,60,57,94,81,63,30.19,30.11,4,2,0,0.00
2013-5-30,73,66,61,64,62,59,97,86,73,30.22,30.12,4,2,0,0.00
2013-5-31,74,68,62,66,62,60,96,84,71,30.19,30.08,4,1,0,0.00
2013-6-1,75,68,64,67,64,61,94,86,77,30.09,29.98,5,2,0,0.00
2013-6-2,69,66,64,67,64,-100,98,96,86,30.00,29.87,6,1,0,0.00
2013-6-3,74,67,63,67,63,59,98,88,71,29.96,29.87,2,0,0,0.00
2013-6-4,77,69,63,65,61,58,87,76,64,30.01,29.93,1,0,0,0.00
2013-6-5,75,66,61,69,64,60,98,93,79,30.01,29.89,4,2,0,0.00
2013-6-6,72,65,61,68,63,60,100,96,85,29.91,29.76,4,1,0,0.00
2013-6-7,74,65,59,68,63,57,98,94,81,29.83,29.67,1,0,0,0.00
2013-6-8,73,64,58,68,62,57,98,90,79,30.08,29.83,1,0,0,0.00
2013-6-9,75,68,65,69,65,62,97,92,76,30.09,29.98,4,1,0,0.00
2013-6-10,70,65,60,67,64,59,100,96,85,30.00,29.92,4,1,0,0.00
2013-6-11,76,70,67,72,68,66,100,93,78,30.03,29.94,4,2,0,0.00
2013-6-12,81,75,71,74,70,66,93,84,77,30.05,29.95,2,1,0,0.00
2013-6-13,78,72,65,73,69,64,97,91,81,29.96,29.72,4,2,0,0.00
2013-6-14,78,67,59,64,59,54,96,76,57,30.00,29.80,2,1,0,0.00
2013-6-15,76,68,61,62,59,54,84,73,63,30.11,30.00,2,0,0,0.00
2013-6-16,78,70,64,68,62,56,95,76,67,30.13,30.01,2,0,0,0.00
2013-6-17,75,67,62,73,65,61,98,95,85,30.04,29.96,2,0,0,0.00
2013-6-18,68,66,64,68,65,63,99,98,96,29.93,29.84,3,1,0,0.00
2013-6-19,74,66,61,69,64,60,98,92,80,30.09,29.89,3,1,0,0.00
2013-6-20,73,66,63,66,64,62,98,93,78,30.19,30.07,4,2,0,0.00
2013-6-22,77,72,65,63,62,59,85,70,60,30.22,30.10,3,1,0,0.00
2013-6-23,77,69,62,68,65,60,96,86,74,30.18,30.09,2,0,0,0.00
2013-6-24,77,69,66,71,67,64,97,94,77,30.20,30.10,2,0,0,0.00
2013-6-25,77,70,64,71,67,63,98,91,81,30.15,30.04,2,0,0,0.00
2013-6-26,77,71,68,71,69,67,98,93,82,30.06,29.93,2,1,0,0.00
2013-6-27,73,70,67,72,69,66,99,96,86,29.96,29.81,3,1,0,0.00
2013-6-28,81,74,68,74,68,66,97,85,67,29.85,29.65,2,1,0,0.00
2013-6-29,76,71,65,66,62,58,97,74,63,29.72,29.66,1,0,0,0.00
2013-6-30,77,70,65,66,61,58,92,75,61,29.78,29.69,0,0,0,0.00
2013-7-1,72,65,61,68,63,60,98,94,84,29.92,29.76,2,0,0,0.00
2013-7-2,76,68,63,68,65,62,97,90,75,30.07,29.92,3,1,0,0.00
2013-7-3,68,64,61,67,63,60,98,97,91,30.16,30.05,4,1,0,0.00
2013-7-4,67,64,62,67,64,61,100,99,98,30.17,30.10,5,2,0,0.00
2013-7-5,72,66,63,68,64,62,99,97,88,30.21,30.14,5,2,0,0.00
2013-7-6,73,66,65,70,66,64,99,98,90,30.17,30.09,3,2,0,0.00
2013-7-7,69,67,66,69,67,65,99,98,97,30.18,30.10,4,0,0,0.00
2013-7-8,79,69,66,73,66,-100,99,95,80,30.19,30.10,1,0,0,0.00
2013-7-9,78,71,66,74,69,65,100,96,85,30.16,30.06,1,0,0,0.00
2013-7-10,80,70,68,74,67,-100,99,94,82,30.11,29.94,1,0,0,0.00
2013-7-11,72,69,65,71,68,63,98,94,87,29.95,29.88,0,0,0,0.00
2013-7-12,78,70,66,72,67,63,99,92,72,29.94,29.87,2,0,0,0.00
2013-7-13,69,65,62,67,64,62,99,97,89,30.06,29.92,5,3,0,0.00
2013-7-14,69,67,65,69,67,65,100,100,99,30.19,30.05,6,3,0,0.00
2013-7-15,75,68,65,71,67,65,100,98,86,30.29,30.19,4,3,0,0.00
2013-7-16,80,72,67,70,68,67,100,89,71,30.30,30.24,3,1,0,0.00
2013-7-17,84,73,65,74,68,63,97,85,65,30.28,30.14,4,0,0,0.00
2013-7-18,81,71,63,73,66,62,97,86,71,30.22,30.06,2,0,0,0.00
2013-7-19,81,72,66,74,70,65,97,91,78,30.11,29.98,1,0,0,0.00
2013-7-20,79,70,67,73,67,-100,98,91,77,30.03,29.93,1,0,0,0.00
2013-7-21,78,70,67,73,69,66,100,95,82,30.02,29.92,1,0,0,0.00
2013-7-22,72,68,64,72,67,64,100,99,98,30.00,29.87,3,1,0,0.00
2013-7-23,68,66,64,68,66,64,100,99,98,29.96,29.85,2,1,0,0.00
2013-7-24,75,69,66,73,68,65,100,97,89,29.90,29.80,1,0,0,0.00
2013-7-25,79,70,65,70,65,57,92,84,68,29.98,29.83,2,0,0,0.00
2013-7-26,80,68,65,71,65,61,98,90,71,30.05,29.98,3,1,0,0.00
2013-7-27,71,67,65,69,66,63,99,96,86,30.00,29.90,1,0,0,0.00
2013-7-28,75,69,64,70,66,63,98,91,76,30.03,29.92,1,0,0,0.00
2013-7-29,76,69,63,66,61,50,90,77,50,30.16,30.02,1,0,0,0.00
2013-7-30,80,72,63,69,61,45,82,70,44,30.20,30.11,1,0,0,0.00
2013-7-31,71,68,64,68,65,61,98,91,73,30.14,29.96,0,0,0,0.00
2013-8-1,67,65,62,66,64,61,99,98,98,29.98,29.95,1,0,0,0.00
2013-8-2,77,72,69,68,64,60,80,76,73,30.02,29.98,0,0,0,0.00
2013-8-3,73,70,67,70,66,61,97,86,76,30.05,29.99,1,0,0,0.00
2013-8-4,79,72,67,70,67,61,97,84,68,30.03,29.97,3,1,0,0.00
2013-8-5,79,70,65,71,64,59,91,81,70,30.03,29.98,1,0,0,0.00
2013-8-6,75,71,65,71,65,54,97,84,55,30.00,29.94,0,0,0,0.00
2013-8-7,71,69,66,71,68,65,99,98,97,30.03,29.96,2,0,0,0.00
2013-8-8,79,71,67,73,69,66,99,94,82,30.06,29.99,3,1,0,0.00
2013-8-9,79,73,70,73,70,68,98,91,78,30.08,30.00,2,0,0,0.00
2013-8-10,80,73,69,75,71,67,98,92,79,30.11,30.05,2,0,0,0.00
2013-8-11,79,72,68,74,70,67,98,93,82,30.15,30.06,1,0,0,0.00
2013-8-12,79,72,69,73,70,68,98,95,79,30.11,29.98,1,0,0,0.00
2013-8-13,75,69,67,71,67,-100,100,94,83,30.01,29.88,2,1,0,0.00
2013-8-21,71,68,65,69,67,65,100,99,94,30.22,30.11,3,1,0,0.00
2013-8-22,79,70,67,73,68,64,99,93,79,30.17,30.05,1,0,0,0.00
2013-8-23,80,72,67,70,67,63,95,86,70,30.08,29.98,2,0,0,0.00
2013-8-24,75,68,63,69,64,62,98,90,77,30.23,30.03,5,2,0,0.00
2013-8-25,72,65,60,64,58,-100,95,82,71,30.35,30.23,5,3,0,0.00
2013-8-26,76,66,58,67,61,57,96,86,70,30.32,30.16,1,0,0,0.00
2013-8-27,78,68,63,67,63,60,92,84,69,30.18,30.06,1,0,0,0.00
2013-9-11,78,71,66,70,66,63,93,83,70,30.21,30.11,0,0,0,0.00
2013-9-12,78,72,68,70,66,63,88,82,74,30.11,29.90,2,0,0,0.00
2013-9-13,73,67,58,67,60,50,96,79,59,29.92,29.83,3,1,0,0.00
2013-9-14,72,61,55,57,54,49,91,76,60,30.09,29.85,4,1,0,0.00
2013-9-15,75,63,57,66,58,-100,95,86,68,30.16,30.09,1,1,0,0.00
2013-9-16,78,69,65,66,63,55,95,82,66,30.14,30.06,1,0,0,0.00
2013-9-17,68,63,58,61,58,55,93,83,70,30.19,30.09,6,4,0,0.00
2013-9-18,58,57,56,56,54,53,93,89,87,30.21,30.17,5,4,0,0.00
2013-9-19,75,65,57,66,60,56,96,86,72,30.21,30.09,1,0,0,0.00
2013-9-20,77,68,62,65,62,58,89,81,65,30.09,29.92,5,0,0,0.00
2013-9-21,69,64,58,65,62,57,98,94,81,29.93,29.68,5,2,0,0.00
2013-9-22,70,61,55,61,55,-100,96,82,65,29.88,29.73,2,0,0,0.00
2013-9-23,69,61,56,61,57,54,96,87,71,30.03,29.88,3,1,0,0.00
2013-9-24,60,58,57,59,57,55,98,95,90,30.03,29.91,4,3,0,0.00
2013-9-25,59,58,57,58,58,57,100,99,98,29.92,29.83,4,2,0,0.00
2013-9-26,69,60,55,65,59,55,100,96,78,30.03,29.88,3,0,0,0.00
2013-9-27,70,61,55,60,56,51,97,84,64,30.14,30.02,3,1,0,0.00
2013-9-28,67,59,53,58,55,52,96,88,71,30.21,30.11,4,2,0,0.00
2013-9-29,65,56,51,56,51,-100,96,87,71,30.16,30.06,3,1,0,0.00
2013-9-30,67,58,52,58,54,51,96,86,69,30.11,30.03,2,0,0,0.00
2013-10-1,65,62,58,61,59,54,89,87,85,30.14,30.09,0,0,0,0.00
2013-10-2,73,66,60,65,60,58,94,83,67,30.16,30.07,2,0,0,0.00
2013-10-3,74,67,62,63,60,57,85,77,64,30.14,30.06,1,0,0,0.00
2013-10-4,75,67,62,66,61,57,87,81,71,30.16,30.09,1,0,0,0.00
2013-10-5,78,69,64,65,62,59,88,80,64,30.12,30.02,2,0,0,0.00
2013-10-6,73,66,60,65,62,59,97,87,73,30.03,29.85,5,2,0,0.00
2013-10-7,66,60,54,62,56,49,98,86,66,29.96,29.80,5,1,0,0.00
2013-10-8,67,59,54,57,54,49,93,83,68,30.12,29.95,5,3,0,0.00
2013-10-9,68,57,49,57,51,44,94,81,63,30.20,30.10,5,2,0,0.00
2013-10-10,69,60,54,58,54,50,92,81,65,30.15,30.02,1,0,0,0.00
2013-10-11,71,62,56,57,53,50,85,74,54,30.05,29.98,1,0,0,0.00
2013-10-18,61,54,48,55,50,41,99,88,68,30.02,29.91,1,0,0,0.00
2013-10-19,56,52,50,53,49,46,95,87,80,30.00,29.94,2,0,0,0.00
2013-10-20,63,53,47,46,39,-100,89,63,49,30.09,29.98,2,0,0,0.00
2013-10-21,63,54,47,52,47,36,94,79,57,30.15,30.04,2,0,0,0.00
2013-10-22,62,55,51,53,49,43,95,79,59,30.06,29.86,3,1,0,0.00
2013-10-23,52,45,36,48,39,30,94,81,58,30.08,29.82,4,2,0,0.00
2013-10-24,54,43,35,41,36,28,86,74,57,30.24,30.07,2,1,0,0.00
2013-10-25,51,41,30,37,26,22,86,56,36,30.40,30.23,3,1,0,0.00
2013-10-26,50,41,31,36,30,27,84,68,52,30.40,30.22,2,1,0,0.00
2013-10-27,54,50,46,50,42,-100,95,79,56,30.23,30.14,3,1,0,0.00
2013-10-28,54,52,50,52,49,-100,96,92,78,30.31,30.16,2,0,0,0.00
2013-10-29,65,56,51,57,53,49,96,88,70,30.36,30.28,1,0,0,0.00
2013-10-30,69,60,54,58,54,52,93,81,66,30.31,30.18,3,1,0,0.00
2013-12-28,42,37,33,34,28,-100,96,75,48,30.44,30.05,10,6,0,0.00
2013-12-29,43,39,35,42,38,34,98,97,96,30.09,29.91,12,5,0,0.00
2013-12-30,40,37,34,38,36,33,98,95,88,30.23,30.07,8,5,0,0.00
2013-12-31,40,33,28,34,24,17,98,72,45,30.42,30.22,7,2,0,0.00
2014-1-1,45,37,34,31,26,18,82,63,50,30.41,30.20,8,4,0,0.00
2014-1-2,41,34,14,40,33,12,98,94,82,30.20,29.79,9,4,0,0.00